Time;durP1;ratioP1;P1;durP2;ratioP2;P2;SDS_P1;SDS_P2;PMS_P1;PMS_P2;Temp;Humidity;BMP_temperature;BMP_pressure;BME280_temperature;BME280_humidity;BME280_pressure;Samples;Min_cycle;Max_cycle;Signal;HPM_P1;HPM_P2
2022/04/11 00:01:57;;;;;;;10.73;9.70;;;;;;;3.39;89.51;101905.56;5049866;28;20021;-54
2022/04/11 00:04:23;;;;;;;11.40;9.60;;;;;;;3.35;90.20;101901.84;5051312;28;20104;-54
2022/04/11 00:06:48;;;;;;;11.20;10.10;;;;;;;3.35;89.85;101902.75;5051049;28;20029;-53
2022/04/11 00:09:13;;;;;;;11.77;10.30;;;;;;;3.31;90.34;101893.03;5050270;28;20021;-49
2022/04/11 00:11:39;;;;;;;11.97;10.53;;;;;;;3.29;90.52;101897.13;5050038;28;20052;-53
2022/04/11 00:14:05;;;;;;;10.93;9.93;;;;;;;3.25;90.50;101890.00;5050435;28;20025;-53
2022/04/11 00:16:30;;;;;;;11.60;10.40;;;;;;;3.24;91.42;101891.66;5050720;28;20032;-54
2022/04/11 00:18:56;;;;;;;11.73;10.53;;;;;;;3.24;91.32;101891.66;5050672;28;20476;-50
2022/04/11 00:21:21;;;;;;;12.07;10.70;;;;;;;3.23;91.20;101886.44;5049863;28;20021;-51
2022/04/11 00:23:47;;;;;;;12.50;11.13;;;;;;;3.23;91.41;101888.97;5050410;28;20025;-54
2022/04/11 00:26:12;;;;;;;13.00;10.73;;;;;;;3.23;91.71;101895.00;5050653;28;20055;-54
2022/04/11 00:28:37;;;;;;;12.67;11.37;;;;;;;3.18;91.98;101886.06;5031734;28;20040;-55
2022/04/11 00:31:02;;;;;;;14.37;11.47;;;;;;;3.18;92.51;101886.06;5031485;28;20025;-54
2022/04/11 00:33:28;;;;;;;11.70;10.33;;;;;;;3.16;92.35;101876.47;5031902;28;20385;-53
2022/04/11 00:35:53;;;;;;;11.20;10.20;;;;;;;3.11;92.77;101879.53;5030629;28;20017;-51
2022/04/11 00:38:18;;;;;;;13.50;10.93;;;;;;;3.10;92.84;101867.53;5031170;28;20594;-55
2022/04/11 00:40:43;;;;;;;13.33;11.63;;;;;;;3.11;92.89;101873.56;5031368;28;20223;-51
2022/04/11 00:43:09;;;;;;;14.07;11.63;;;;;;;3.12;93.00;101865.06;5030592;28;20550;-52
2022/04/11 00:45:34;;;;;;;12.63;11.37;;;;;;;3.15;92.43;101864.44;5031131;28;20029;-51
2022/04/11 00:47:59;;;;;;;12.73;11.47;;;;;;;3.15;93.22;101859.31;5031293;28;20104;-54
2022/04/11 00:50:25;;;;;;;12.93;11.80;;;;;;;3.14;93.25;101862.63;5031213;28;20372;-55
2022/04/11 00:52:53;;;;;;;12.40;11.20;;;;;;;3.13;93.61;101846.34;5030981;28;20026;-53
2022/04/11 00:55:21;;;;;;;12.03;10.73;;;;;;;3.14;93.81;101853.28;5030116;28;20087;-54
2022/04/11 00:57:47;;;;;;;12.47;11.17;;;;;;;3.14;93.58;101842.13;5031207;28;20362;-54
2022/04/11 01:00:14;;;;;;;12.63;11.37;;;;;;;3.14;94.02;101848.16;5030801;28;20397;-56
2022/04/11 01:02:39;;;;;;;13.73;11.40;;;;;;;3.14;94.21;101844.69;5031300;28;20024;-53
2022/04/11 01:05:09;;;;;;;12.30;11.00;;;;;;;3.16;94.19;101850.84;5031004;28;20044;-54
2022/04/11 01:07:35;;;;;;;12.97;11.67;;;;;;;3.15;93.72;101849.06;5030345;28;20052;-53
2022/04/11 01:10:01;;;;;;;12.53;11.33;;;;;;;3.16;93.91;101841.50;5030686;28;20029;-55
2022/04/11 01:12:26;;;;;;;12.17;10.93;;;;;;;3.17;94.17;101842.38;5030860;28;20441;-54
2022/04/11 01:14:51;;;;;;;12.27;11.07;;;;;;;3.16;93.80;101838.94;5030027;28;20564;-51
2022/04/11 01:17:16;;;;;;;12.13;10.83;;;;;;;3.15;92.70;101834.56;5030590;28;20059;-54
2022/04/11 01:19:42;;;;;;;12.67;11.43;;;;;;;3.14;92.72;101835.34;5030196;28;20037;-55
2022/04/11 01:22:07;;;;;;;13.53;12.27;;;;;;;3.12;92.83;101840.38;5030621;28;20075;-54
2022/04/11 01:24:33;;;;;;;12.47;11.13;;;;;;;3.12;92.55;101835.25;5030194;28;20034;-54
2022/04/11 01:26:58;;;;;;;12.57;11.37;;;;;;;3.10;92.53;101831.66;5030496;28;20033;-54
2022/04/11 01:29:24;;;;;;;12.77;11.67;;;;;;;3.11;92.46;101828.31;5029831;28;20044;-54
2022/04/11 01:31:49;;;;;;;13.60;12.33;;;;;;;3.12;92.48;101835.25;5030304;28;20063;-52
2022/04/11 01:34:15;;;;;;;12.70;11.60;;;;;;;3.15;92.39;101838.81;5030381;28;20060;-55
2022/04/11 01:36:40;;;;;;;13.20;11.93;;;;;;;3.17;91.86;101834.69;5029898;28;20033;-56
2022/04/11 01:39:06;;;;;;;12.23;11.20;;;;;;;3.18;91.71;101833.94;5027991;28;20051;-54
2022/04/11 01:41:31;;;;;;;13.27;11.83;;;;;;;3.17;91.54;101837.25;5030325;28;20079;-50
2022/04/11 01:43:57;;;;;;;13.33;12.03;;;;;;;3.14;91.39;101832.78;5029692;28;20033;-53
2022/04/11 01:46:22;;;;;;;13.00;11.80;;;;;;;3.14;91.21;101837.03;5030534;28;20056;-52
2022/04/11 01:48:48;;;;;;;12.97;11.83;;;;;;;3.11;91.48;101840.25;5029846;28;20079;-53
2022/04/11 01:51:14;;;;;;;12.50;11.40;;;;;;;3.10;91.19;101841.91;5029865;28;20850;-54
2022/04/11 01:53:40;;;;;;;12.77;11.43;;;;;;;3.08;90.81;101830.63;5029930;28;20468;-55
2022/04/11 01:56:05;;;;;;;13.30;11.80;;;;;;;3.08;90.81;101837.41;5029714;28;20028;-53
2022/04/11 01:58:31;;;;;;;13.20;11.93;;;;;;;3.04;90.98;101836.28;5029248;28;20477;-54
2022/04/11 02:00:58;;;;;;;13.97;11.77;;;;;;;3.06;91.43;101839.88;5029555;28;20566;-52
2022/04/11 02:03:24;;;;;;;12.57;11.43;;;;;;;3.04;91.03;101831.16;5029668;28;20037;-55
2022/04/11 02:05:50;;;;;;;13.30;12.20;;;;;;;3.03;91.81;101831.06;5028671;28;20033;-51
2022/04/11 02:08:15;;;;;;;12.87;11.73;;;;;;;3.02;91.98;101831.84;5030026;28;20372;-55
2022/04/11 02:10:40;;;;;;;13.63;12.43;;;;;;;3.00;91.63;101824.03;5029689;28;20044;-52
2022/04/11 02:13:06;;;;;;;13.13;12.00;;;;;;;2.97;92.58;101826.31;5028959;28;20524;-52
2022/04/11 02:15:32;;;;;;;13.50;12.20;;;;;;;2.96;92.88;101832.25;5029197;28;20060;-54
2022/04/11 02:17:57;;;;;;;14.20;12.83;;;;;;;2.95;93.30;101830.47;5029527;28;20032;-54
2022/04/11 02:20:23;;;;;;;13.13;11.73;;;;;;;2.93;92.61;101819.19;5029074;28;20148;-55
2022/04/11 02:22:56;;;;;;;13.10;11.80;;;;;;;2.90;92.98;101822.41;5028970;28;20029;-53
2022/04/11 02:25:27;;;;;;;13.50;12.27;;;;;;;2.86;93.11;101828.94;5029249;28;20099;-52
2022/04/11 02:27:55;;;;;;;12.60;11.32;;;;;;;2.84;93.18;101827.06;5028896;28;20033;-50
2022/04/11 02:30:24;;;;;;;14.13;12.83;;;;;;;2.82;92.96;101826.03;5029716;28;20032;-53
2022/04/11 02:32:50;;;;;;;14.10;12.67;;;;;;;2.79;92.72;101836.03;5029018;28;20120;-54
2022/04/11 02:35:16;;;;;;;13.10;11.83;;;;;;;2.74;92.80;101831.44;5029119;28;20052;-54
2022/04/11 02:37:42;;;;;;;14.27;12.97;;;;;;;2.73;92.26;101834.78;5028858;28;20511;-52
2022/04/11 02:40:08;;;;;;;13.57;12.47;;;;;;;2.71;92.92;101837.97;5041298;28;20020;-53
2022/04/11 02:42:34;;;;;;;12.97;11.67;;;;;;;2.68;92.63;101835.16;5028334;28;20407;-54
2022/04/11 02:44:59;;;;;;;12.93;11.70;;;;;;;2.66;92.64;101832.50;5029294;28;20025;-55
2022/04/11 02:47:24;;;;;;;14.00;12.60;;;;;;;2.62;92.70;101828.78;5048315;28;20056;-54
2022/04/11 02:49:49;;;;;;;13.70;12.27;;;;;;;2.57;93.00;101822.41;5047950;28;20075;-51
2022/04/11 02:52:15;;;;;;;13.47;12.17;;;;;;;2.54;92.90;101832.38;5047160;28;20112;-52
2022/04/11 02:54:40;;;;;;;13.77;12.37;;;;;;;2.48;93.47;101826.78;5047591;28;20556;-55
2022/04/11 02:57:06;;;;;;;14.87;12.90;;;;;;;2.42;93.74;101827.16;5047836;28;20498;-52
2022/04/11 02:59:32;;;;;;;13.53;12.20;;;;;;;2.36;94.25;101822.44;5047886;28;20411;-52
2022/04/11 03:01:58;;;;;;;14.73;13.43;;;;;;;2.31;94.89;101831.41;5047942;28;20499;-52
2022/04/11 03:04:23;;;;;;;14.63;13.20;;;;;;;2.27;94.96;101826.81;5048203;28;20448;-54
2022/04/11 03:06:49;;;;;;;14.47;13.07;;;;;;;2.21;95.78;101816.09;5047667;28;20027;-53
2022/04/11 03:09:14;;;;;;;14.90;13.47;;;;;;;2.21;96.54;101826.31;5047504;28;20025;-51
2022/04/11 03:11:40;;;;;;;14.17;12.97;;;;;;;2.15;96.46;101816.47;5046781;28;20439;-53
2022/04/11 03:14:05;;;;;;;15.10;13.70;;;;;;;2.08;97.02;101817.63;5047735;28;20021;-52
2022/04/11 03:16:31;;;;;;;15.07;13.67;;;;;;;2.06;97.23;101810.59;5047456;28;20024;-51
2022/04/11 03:18:57;;;;;;;14.83;13.47;;;;;;;2.03;97.37;101811.25;5047739;28;20028;-54
2022/04/11 03:21:22;;;;;;;14.73;13.43;;;;;;;1.98;97.45;101808.28;5047385;28;20494;-51
2022/04/11 03:23:48;;;;;;;15.87;14.40;;;;;;;1.94;97.74;101816.50;5045787;28;20040;-53
2022/04/11 03:26:13;;;;;;;14.93;13.63;;;;;;;1.89;98.27;101813.53;5047442;28;20035;-54
2022/04/11 03:28:38;;;;;;;15.53;14.07;;;;;;;1.85;98.70;101819.19;5047283;28;20037;-50
2022/04/11 03:31:04;;;;;;;17.50;14.73;;;;;;;1.84;98.50;101811.38;5047345;28;20519;-53
2022/04/11 03:33:29;;;;;;;16.13;14.57;;;;;;;1.79;98.92;101816.09;5047600;28;20044;-49
2022/04/11 03:35:54;;;;;;;15.83;14.47;;;;;;;1.73;98.95;101820.69;5047710;28;20025;-54
2022/04/11 03:38:20;;;;;;;16.00;14.33;;;;;;;1.70;99.87;101825.56;5047024;28;20462;-51
2022/04/11 03:40:45;;;;;;;14.63;13.33;;;;;;;1.67;99.69;101821.97;5047291;28;20033;-51
2022/04/11 03:43:11;;;;;;;15.33;13.83;;;;;;;1.63;99.86;101814.84;5047374;28;20033;-55
2022/04/11 03:45:36;;;;;;;15.90;14.30;;;;;;;1.62;100.00;101818.13;5047133;28;20124;-52
2022/04/11 03:48:02;;;;;;;16.03;14.53;;;;;;;1.55;99.87;101801.41;5046990;28;20028;-49
2022/04/11 03:50:27;;;;;;;17.27;15.77;;;;;;;1.56;99.97;101815.06;5047288;28;20075;-54
2022/04/11 03:52:53;;;;;;;15.63;14.07;;;;;;;1.54;100.00;101819.16;5047345;28;20028;-55
2022/04/11 03:55:18;;;;;;;15.47;14.00;;;;;;;1.50;100.00;101820.56;5047242;28;20025;-55
2022/04/11 03:57:43;;;;;;;16.53;15.13;;;;;;;1.46;100.00;101815.94;5046936;28;20484;-51
2022/04/11 04:00:09;;;;;;;15.60;14.13;;;;;;;1.42;100.00;101817.34;5047579;28;20095;-51
2022/04/11 04:02:34;;;;;;;15.33;13.73;;;;;;;1.40;100.00;101825.66;5046821;28;20021;-51
2022/04/11 04:05:00;;;;;;;14.90;13.57;;;;;;;1.36;100.00;101814.28;5047542;28;20037;-54
2022/04/11 04:07:25;;;;;;;16.47;14.93;;;;;;;1.29;100.00;101817.97;5047322;28;20032;-54
2022/04/11 04:09:51;;;;;;;16.37;14.73;;;;;;;1.26;100.00;101814.25;5044889;28;20101;-54
2022/04/11 04:12:20;;;;;;;15.40;14.07;;;;;;;1.23;100.00;101813.97;5027761;28;20078;-53
2022/04/11 04:14:49;;;;;;;16.30;14.67;;;;;;;1.20;100.00;101817.19;5028280;28;20037;-51
2022/04/11 04:17:15;;;;;;;16.73;15.13;;;;;;;1.17;100.00;101816.94;5028052;28;20492;-54
2022/04/11 04:19:41;;;;;;;16.50;15.07;;;;;;;1.15;100.00;101813.34;5027576;28;20117;-52
2022/04/11 04:22:07;;;;;;;15.77;14.47;;;;;;;1.11;100.00;101813.81;5027101;28;20112;-51
2022/04/11 04:24:34;;;;;;;15.50;14.17;;;;;;;1.09;100.00;101808.59;5027698;28;20033;-50
2022/04/11 04:26:59;;;;;;;16.13;14.63;;;;;;;1.06;100.00;101808.34;5028172;28;20029;-55
2022/04/11 04:29:25;;;;;;;16.20;14.40;;;;;;;1.03;100.00;101808.03;5029342;28;20033;-52
2022/04/11 04:31:50;;;;;;;14.93;13.53;;;;;;;1.03;100.00;101808.03;5030817;28;20324;-53
2022/04/11 04:34:16;;;;;;;16.07;14.67;;;;;;;1.00;100.00;101800.13;5031325;28;20111;-54
2022/04/11 04:36:41;;;;;;;16.63;15.03;;;;;;;0.99;100.00;101800.91;5031226;28;20094;-53
2022/04/11 04:39:07;;;;;;;16.60;14.83;;;;;;;0.95;100.00;101797.19;5030891;28;20033;-50
2022/04/11 04:41:33;;;;;;;16.80;15.23;;;;;;;0.91;100.00;101801.13;5030906;28;20036;-54
2022/04/11 04:43:58;;;;;;;16.93;15.30;;;;;;;0.90;100.00;101801.88;5028136;28;20108;-54
2022/04/11 04:46:24;;;;;;;15.83;14.17;;;;;;;0.86;100.00;101798.94;5039745;28;20036;-51
2022/04/11 04:48:49;;;;;;;16.77;15.17;;;;;;;0.84;100.00;101796.25;5048044;28;20029;-52
2022/04/11 04:51:16;;;;;;;16.77;14.97;;;;;;;0.82;100.00;101798.69;5047874;28;20032;-50
2022/04/11 04:53:41;;;;;;;17.30;15.50;;;;;;;0.80;100.00;101797.66;5048150;28;20025;-55
2022/04/11 04:56:06;;;;;;;16.60;15.27;;;;;;;0.80;100.00;101795.09;5048516;28;20373;-53
2022/04/11 04:58:32;;;;;;;15.77;14.17;;;;;;;0.79;100.00;101792.41;5049792;28;20025;-53
2022/04/11 05:00:57;;;;;;;16.33;14.90;;;;;;;0.75;100.00;101796.34;5050185;28;20093;-52
2022/04/11 05:03:22;;;;;;;16.53;14.83;;;;;;;0.77;100.00;101796.47;5050346;28;20397;-54
2022/04/11 05:05:47;;;;;;;17.83;15.90;;;;;;;0.78;100.00;101795.72;5049879;28;20033;-51
2022/04/11 05:08:12;;;;;;;17.27;15.67;;;;;;;0.75;100.00;101788.69;5049360;28;20072;-52
2022/04/11 05:10:38;;;;;;;16.73;15.13;;;;;;;0.74;100.00;101788.56;5049804;28;20037;-53
2022/04/11 05:13:03;;;;;;;17.20;15.40;;;;;;;0.74;100.00;101786.00;5049691;28;20021;-54
2022/04/11 05:15:29;;;;;;;18.57;16.20;;;;;;;0.73;100.00;101784.22;5050101;28;20028;-50
2022/04/11 05:17:55;;;;;;;16.73;14.97;;;;;;;0.75;100.00;101788.69;5049477;28;20039;-55
2022/04/11 05:20:20;;;;;;;17.43;15.83;;;;;;;0.74;100.00;101786.88;5048089;28;20461;-53
2022/04/11 05:22:45;;;;;;;17.53;15.90;;;;;;;0.74;100.00;101783.47;5049385;28;20040;-52
2022/04/11 05:25:11;;;;;;;16.40;14.80;;;;;;;0.76;100.00;101781.91;5039774;28;20087;-56
2022/04/11 05:27:36;;;;;;;17.03;15.23;;;;;;;0.81;100.00;101785.78;5038265;28;20022;-53
2022/04/11 05:30:05;;;;;;;17.33;15.83;;;;;;;0.87;100.00;101786.31;5043071;28;20036;-54
2022/04/11 05:32:31;;;;;;;16.13;14.63;;;;;;;0.94;100.00;101788.63;5040222;28;20065;-53
2022/04/11 05:34:56;;;;;;;17.77;16.07;;;;;;;1.01;100.00;101786.63;5039369;28;20136;-53
2022/04/11 05:37:21;;;;;;;16.63;15.10;;;;;;;1.08;100.00;101791.47;5030424;28;20021;-55
2022/04/11 05:39:46;;;;;;;16.43;14.93;;;;;;;1.16;100.00;101794.69;5029628;28;20116;-55
2022/04/11 05:42:12;;;;;;;16.80;15.17;;;;;;;1.22;100.00;101781.56;5038689;28;20366;-55
2022/04/11 05:44:37;;;;;;;15.93;14.43;;;;;;;1.34;100.00;101794.47;5048464;28;20037;-52
2022/04/11 05:47:03;;;;;;;16.03;14.30;;;;;;;1.44;100.00;101792.81;5042014;28;20790;-50
2022/04/11 05:49:28;;;;;;;15.80;14.30;;;;;;;1.55;100.00;101785.16;5039812;28;20052;-53
2022/04/11 05:51:53;;;;;;;16.17;14.57;;;;;;;1.67;100.00;101796.41;5037979;28;20451;-53
2022/04/11 05:54:18;;;;;;;14.87;12.97;;;;;;;1.80;100.00;101787.22;5040236;28;20029;-54
2022/04/11 05:56:44;;;;;;;14.30;12.80;;;;;;;1.97;100.00;101790.28;5047060;28;20072;-52
2022/04/11 05:59:09;;;;;;;14.43;13.03;;;;;;;2.14;100.00;101792.53;5040279;28;20037;-52
2022/04/11 06:01:35;;;;;;;14.47;13.07;;;;;;;2.31;100.00;101787.91;5035743;28;20101;-50
2022/04/11 06:04:01;;;;;;;14.00;12.60;;;;;;;2.49;100.00;101788.50;5040038;28;20389;-53
2022/04/11 06:06:26;;;;;;;12.33;11.13;;;;;;;2.66;97.58;101785.50;5039327;28;20103;-52
2022/04/11 06:08:52;;;;;;;11.90;10.90;;;;;;;2.83;96.89;101774.94;5041462;28;20400;-54
2022/04/11 06:11:17;;;;;;;11.37;10.27;;;;;;;3.02;95.59;101781.50;5038534;28;20025;-53
2022/04/11 06:13:45;;;;;;;9.93;9.00;;;;;;;3.19;90.39;101774.22;5035085;28;20477;-52
2022/04/11 06:16:11;;;;;;;11.20;10.20;;;;;;;3.40;91.98;101771.53;5040531;28;20021;-52
2022/04/11 06:18:36;;;;;;;10.23;9.33;;;;;;;3.58;89.42;101770.34;5039300;28;20025;-55
2022/04/11 06:21:02;;;;;;;10.50;9.40;;;;;;;3.76;88.03;101776.78;5038755;28;20037;-53
2022/04/11 06:23:27;;;;;;;9.70;8.80;;;;;;;3.95;86.36;101777.38;5041417;28;20033;-51
2022/04/11 06:25:52;;;;;;;10.50;9.07;;;;;;;4.22;87.70;101781.84;5044392;28;20029;-52
2022/04/11 06:28:18;;;;;;;9.80;8.77;;;;;;;4.46;86.64;101776.72;5048420;28;20108;-51
2022/04/11 06:30:43;;;;;;;9.83;8.77;;;;;;;4.70;86.57;101786.94;5047862;28;20072;-54
2022/04/11 06:33:08;;;;;;;8.50;7.80;;;;;;;4.91;84.54;101782.44;5046211;28;20029;-50
2022/04/11 06:35:33;;;;;;;9.60;8.07;;;;;;;5.15;84.28;101772.09;5047982;28;20047;-52
2022/04/11 06:37:59;;;;;;;9.70;7.80;;;;;;;5.31;79.68;101777.41;5048291;28;20040;-51
2022/04/11 06:40:24;;;;;;;9.07;8.02;;;;;;;5.46;78.22;101773.31;5047981;28;20028;-54
2022/04/11 06:42:49;;;;;;;8.85;7.50;;;;;;;5.65;78.77;101780.56;5031183;28;20381;-53
2022/04/11 06:45:14;;;;;;;8.77;7.63;;;;;;;5.83;79.18;101780.03;5031017;28;20040;-54
2022/04/11 06:47:40;;;;;;;8.23;7.40;;;;;;;6.01;76.85;101774.31;5039267;28;20120;-55
2022/04/11 06:50:06;;;;;;;7.68;6.97;;;;;;;6.15;73.98;101777.84;5032763;28;20101;-56
2022/04/11 06:52:31;;;;;;;8.13;7.32;;;;;;;6.29;74.63;101785.56;5030618;28;20044;-52
2022/04/11 06:54:57;;;;;;;8.00;7.25;;;;;;;6.42;73.43;101782.09;5028955;28;20540;-53
2022/04/11 06:57:24;;;;;;;7.90;6.68;;;;;;;6.40;70.98;101783.69;5028353;28;20025;-54
2022/04/11 06:59:49;;;;;;;6.95;6.25;;;;;;;6.43;71.04;101787.34;5028675;28;20037;-50
2022/04/11 07:02:15;;;;;;;10.65;7.15;;;;;;;6.75;72.44;101792.75;5028834;28;20455;-54
2022/04/11 07:04:40;;;;;;;7.28;6.57;;;;;;;6.84;70.19;101792.44;5028873;28;20126;-53
2022/04/11 07:07:05;;;;;;;10.70;6.43;;;;;;;7.10;69.98;101793.19;5028161;28;20056;-51
2022/04/11 07:09:31;;;;;;;8.18;6.82;;;;;;;7.47;72.33;101794.53;5028705;28;20033;-53
2022/04/11 07:11:57;;;;;;;7.32;5.85;;;;;;;7.75;67.56;101791.03;5029029;28;20389;-54
2022/04/11 07:14:22;;;;;;;8.48;7.07;;;;;;;8.04;68.56;101790.94;5029083;28;20029;-53
2022/04/11 07:16:48;;;;;;;6.70;6.05;;;;;;;8.26;65.32;101774.06;5047071;28;20063;-55
2022/04/11 07:19:14;;;;;;;8.05;5.55;;;;;;;8.26;65.44;101776.66;5047511;28;20380;-56
2022/04/11 07:21:39;;;;;;;6.53;5.93;;;;;;;8.52;66.94;101770.38;5047361;28;20036;-56
2022/04/11 07:24:05;;;;;;;7.47;5.68;;;;;;;9.04;67.68;101762.81;5047309;28;20095;-56
2022/04/11 07:26:30;;;;;;;6.75;6.10;;;;;;;9.59;66.97;101761.31;5047929;28;20195;-54
2022/04/11 07:28:55;;;;;;;5.93;5.47;;;;;;;9.98;64.04;101767.53;5047498;28;20029;-54
2022/04/11 07:31:21;;;;;;;8.48;5.45;;;;;;;9.73;59.14;101763.72;5046716;28;20040;-57
2022/04/11 07:33:47;;;;;;;6.95;5.85;;;;;;;9.94;62.02;101769.09;5041324;28;20120;-55
2022/04/11 07:36:12;;;;;;;6.45;5.53;;;;;;;10.43;61.73;101773.97;5038644;28;20122;-55
2022/04/11 07:38:38;;;;;;;5.35;4.80;;;;;;;11.01;60.73;101763.69;5036336;28;20041;-56
2022/04/11 07:41:03;;;;;;;7.68;5.28;;;;;;;11.36;59.86;101759.16;5028294;28;20037;-55
2022/04/11 07:43:29;;;;;;;7.53;5.55;;;;;;;11.65;56.79;101754.34;5027968;28;20459;-55
2022/04/11 07:45:54;;;;;;;7.35;5.03;;;;;;;11.44;53.75;101750.81;5027893;28;20072;-57
2022/04/11 07:48:19;;;;;;;6.35;5.07;;;;;;;11.39;55.65;101748.00;5028153;28;20036;-56
2022/04/11 07:50:45;;;;;;;7.32;5.15;;;;;;;11.07;54.26;101752.66;5028255;28;20059;-56
2022/04/11 07:53:10;;;;;;;7.28;5.35;;;;;;;11.33;54.47;101747.75;5028741;28;20112;-55
2022/04/11 07:55:35;;;;;;;6.57;5.90;;;;;;;11.02;52.93;101740.41;5046909;28;20029;-56
2022/04/11 07:58:00;;;;;;;5.80;4.88;;;;;;;11.28;57.68;101740.66;5047354;28;20029;-55
2022/04/11 08:00:26;;;;;;;7.95;5.13;;;;;;;11.86;55.43;101744.75;5047301;28;20465;-56
2022/04/11 08:02:53;;;;;;;6.15;4.75;;;;;;;12.20;52.82;101740.97;5039555;28;20021;-60
2022/04/11 08:05:19;;;;;;;5.97;4.40;;;;;;;12.36;52.38;101738.97;5030997;28;20037;-56
2022/04/11 08:07:46;;;;;;;7.68;5.15;;;;;;;12.53;50.70;101736.13;5050793;28;20386;-57
2022/04/11 08:10:11;;;;;;;6.03;4.70;;;;;;;-148.33;100.00;56587.81;5051947;28;20055;-58
2022/04/11 08:12:37;;;;;;;7.25;4.25;;;;;;;-148.33;100.00;56587.81;5050276;28;20060;-57
2022/04/11 08:15:02;;;;;;;7.15;3.75;;;;;;;-148.33;100.00;56587.81;5049418;28;20350;-54
2022/04/11 08:17:28;;;;;;;6.25;3.70;;;;;;;-148.33;100.00;56587.81;5049580;28;20078;-56
2022/04/11 08:19:53;;;;;;;4.20;3.70;;;;;;;-148.33;100.00;56587.81;5050690;28;20031;-56
2022/04/11 08:22:18;;;;;;;5.75;3.95;;;;;;;-148.33;100.00;56587.81;5050305;28;20582;-55
2022/04/11 08:24:44;;;;;;;7.30;4.28;;;;;;;-148.33;100.00;56587.81;5050254;28;20162;-56
2022/04/11 08:27:09;;;;;;;5.45;4.63;;;;;;;-148.33;100.00;56587.81;5048633;28;20098;-56
2022/04/11 08:29:34;;;;;;;6.25;4.22;;;;;;;-148.33;100.00;56587.81;5048863;28;20036;-57
2022/04/11 08:32:00;;;;;;;6.60;3.72;;;;;;;-148.33;100.00;56587.81;5048561;28;20127;-54
2022/04/11 08:34:25;;;;;;;6.97;3.47;;;;;;;-148.33;100.00;56587.81;5048463;28;20033;-57
2022/04/11 08:36:50;;;;;;;6.10;3.67;;;;;;;-148.33;100.00;56587.81;5048667;28;20033;-57
2022/04/11 08:39:16;;;;;;;8.73;4.03;;;;;;;-148.33;100.00;56587.81;5048419;28;20028;-57
2022/04/11 08:41:42;;;;;;;4.72;3.67;;;;;;;-148.33;100.00;56587.81;5043115;28;20021;-57
2022/04/11 08:44:07;;;;;;;5.70;4.03;;;;;;;-148.33;100.00;56587.81;5050168;28;20396;-55
2022/04/11 08:46:34;;;;;;;4.57;3.70;;;;;;;-148.33;100.00;56587.81;5050173;28;20469;-57
2022/04/11 08:49:02;;;;;;;6.15;3.25;;;;;;;-148.33;100.00;56587.81;5050192;28;20447;-56
2022/04/11 08:51:30;;;;;;;6.88;3.05;;;;;;;-148.33;100.00;56587.81;5049584;28;20041;-55
2022/04/11 08:53:56;;;;;;;5.90;2.97;;;;;;;-148.33;100.00;56587.81;5049726;28;20033;-55
2022/04/11 08:56:21;;;;;;;6.93;3.08;;;;;;;-148.33;100.00;56587.81;5049822;28;20039;-55
2022/04/11 08:58:46;;;;;;;6.30;3.50;;;;;;;-148.33;100.00;56587.81;5050087;28;20392;-55
2022/04/11 09:01:12;;;;;;;8.20;3.22;;;;;;;-148.33;100.00;56587.81;5050377;28;20108;-56
2022/04/11 09:03:38;;;;;;;5.10;3.50;;;;;;;-148.33;100.00;56587.81;5050265;28;20025;-56
2022/04/11 09:06:04;;;;;;;5.85;3.50;;;;;;;-148.33;100.00;56587.81;5049729;28;20032;-55
2022/04/11 09:08:56;;;;;;;5.55;3.13;;;;;;;-148.33;100.00;56587.81;5050474;28;20017;-54
2022/04/11 09:11:32;;;;;;;;;;;;;;;-148.33;100.00;56587.81;5028068;28;20041;-55
2022/04/11 09:14:00;;;;;;;5.35;3.30;;;;;;;-148.33;100.00;56587.81;5030723;28;19992;-54
2022/04/11 09:16:26;;;;;;;4.82;3.10;;;;;;;-148.33;100.00;56587.81;5030463;28;20751;-57
2022/04/11 09:18:53;;;;;;;4.80;3.45;;;;;;;-148.33;100.00;56587.81;5046719;28;20024;-56
2022/04/11 09:21:22;;;;;;;6.13;2.65;;;;;;;-148.33;100.00;56587.81;5032747;28;20029;-57
2022/04/11 09:23:48;;;;;;;5.93;3.50;;;;;;;-148.33;100.00;56587.81;5030635;28;20029;-56
2022/04/11 09:26:15;;;;;;;4.82;2.88;;;;;;;-148.33;100.00;56587.81;5031047;28;20104;-56
2022/04/11 09:28:41;;;;;;;4.95;2.63;;;;;;;-148.33;100.00;56587.81;5030174;28;20021;-55
2022/04/11 09:31:06;;;;;;;3.72;2.92;;;;;;;-148.33;100.00;56587.81;5030329;28;20095;-57
2022/04/11 09:33:38;;;;;;;4.55;2.88;;;;;;;-148.33;100.00;56587.81;5030855;28;20036;-57
2022/04/11 09:36:04;;;;;;;5.22;3.05;;;;;;;-148.33;100.00;56587.81;5030524;28;20385;-57
2022/04/11 09:38:36;;;;;;;4.82;2.85;;;;;;;-148.33;100.00;56587.81;5029939;28;20025;-56
2022/04/11 09:41:02;;;;;;;6.97;3.17;;;;;;;-148.33;100.00;56587.81;5030053;28;20021;-57
2022/04/11 09:43:32;;;;;;;4.18;2.80;;;;;;;-148.33;100.00;56587.81;5029098;28;20060;-57
2022/04/11 09:45:59;;;;;;;3.78;2.20;;;;;;;-148.33;100.00;56587.81;5030042;28;20037;-55
2022/04/11 09:48:30;;;;;;;5.45;2.78;;;;;;;-148.33;100.00;56587.81;5030147;28;20030;-56
2022/04/11 09:50:59;;;;;;;5.30;3.00;;;;;;;-148.33;100.00;56587.81;5030255;28;20489;-56
2022/04/11 09:53:30;;;;;;;2.78;2.40;;;;;;;-148.33;100.00;56587.81;5030085;28;20488;-57
2022/04/11 09:55:55;;;;;;;;;;;;;;;-148.33;100.00;56587.81;5030326;28;20477;-56
2022/04/11 09:58:22;;;;;;;3.08;2.13;;;;;;;-148.33;100.00;56587.81;5030326;28;19915;-57
2022/04/11 10:00:49;;;;;;;4.28;2.70;;;;;;;-148.33;100.00;56587.81;5047101;28;20074;-57
2022/04/11 10:03:15;;;;;;;5.68;2.90;;;;;;;-148.33;100.00;56587.81;5031447;28;20026;-56
2022/04/11 10:05:41;;;;;;;5.70;2.17;;;;;;;-148.33;100.00;56587.81;5029463;28;20033;-55
2022/04/11 10:08:09;;;;;;;2.83;1.95;;;;;;;-148.33;100.00;56587.81;5029759;28;20052;-57
2022/04/11 10:10:38;;;;;;;4.03;2.50;;;;;;;-148.33;100.00;56587.81;5029821;28;20510;-56
2022/04/11 10:13:06;;;;;;;4.45;2.60;;;;;;;-148.33;100.00;56587.81;5029840;28;20025;-57
2022/04/11 10:15:32;;;;;;;7.65;3.00;;;;;;;-148.33;100.00;56587.81;5029047;28;20033;-56
2022/04/11 10:17:57;;;;;;;5.40;3.00;;;;;;;-148.33;100.00;56587.81;5030070;28;20026;-57
2022/04/11 10:20:30;;;;;;;6.57;2.50;;;;;;;-148.33;100.00;56587.81;5029642;28;20032;-55
2022/04/11 10:23:03;;;;;;;3.28;2.22;;;;;;;-148.33;100.00;56587.81;5029533;28;20066;-55
2022/04/11 10:25:31;;;;;;;3.63;2.08;;;;;;;-148.33;100.00;56587.81;5028891;28;20082;-55
2022/04/11 10:28:21;;;;;;;4.63;2.53;;;;;;;-148.33;100.00;56587.81;5043448;28;20062;-55
2022/04/11 10:31:12;;;;;;;5.25;3.10;;;;;;;-148.33;100.00;56587.81;5033003;28;20114;-55
2022/04/11 10:33:55;;;;;;;3.45;2.80;;;;;;;-148.33;100.00;56587.81;5041260;28;20036;-57
2022/04/11 10:36:35;;;;;;;6.43;2.90;;;;;;;-148.33;100.00;56587.81;5044742;28;20498;-56
2022/04/11 10:39:13;;;;;;;2.67;2.17;;;;;;;-148.33;100.00;56587.81;5041830;28;20029;-57
2022/04/11 10:41:56;;;;;;;4.55;2.22;;;;;;;-148.33;100.00;56587.81;5041793;28;20013;-57
2022/04/11 10:44:45;;;;;;;4.35;2.70;;;;;;;-148.33;100.00;56587.81;5029230;28;20148;-57
2022/04/11 10:47:11;;;;;;;4.97;2.33;;;;;;;-148.33;100.00;56587.81;5040336;28;20381;-56
2022/04/11 10:49:48;;;;;;;4.72;2.38;;;;;;;-148.33;100.00;56587.81;5033370;28;20029;-57
2022/04/11 10:52:32;;;;;;;4.72;2.70;;;;;;;-148.33;100.00;56587.81;5028950;28;20421;-57
2022/04/11 10:55:17;;;;;;;3.85;2.50;;;;;;;-148.33;100.00;56587.81;5040782;28;20025;-57
2022/04/11 10:57:42;;;;;;;2.60;2.15;;;;;;;-148.33;100.00;56587.81;5034921;28;20022;-57
2022/04/11 11:00:13;;;;;;;3.42;2.38;;;;;;;-148.33;100.00;56587.81;5029176;28;20021;-55
2022/04/11 11:05:32;;;;;;;5.68;2.28;;;;;;;-148.33;100.00;56587.81;5029766;28;20462;-56
2022/04/11 11:08:09;;;;;;;6.00;2.40;;;;;;;-148.33;100.00;56587.81;5043527;28;20025;-57
2022/04/11 11:11:12;;;;;;;4.57;2.70;;;;;;;-148.33;100.00;56587.81;5044366;28;20432;-57
2022/04/11 11:13:39;;;;;;;4.53;2.92;;;;;;;-148.33;100.00;56587.81;5043039;28;20087;-57
2022/04/11 11:16:07;;;;;;;5.03;2.67;;;;;;;-148.33;100.00;56587.81;5043425;28;20033;-57
2022/04/11 11:18:51;;;;;;;3.78;2.92;;;;;;;-148.33;100.00;56587.81;5043264;28;20025;-55